Time;durP1;ratioP1;P1;durP2;ratioP2;P2;SDS_P1;SDS_P2;PMS_P1;PMS_P2;Temp;Humidity;BMP_temperature;BMP_pressure;BME280_temperature;BME280_humidity;BME280_pressure;Samples;Min_cycle;Max_cycle;Signal;HPM_P1;HPM_P2
2022/12/04 00:01:53;;;;;;;64.20;27.70;;;;;;;1.38;92.01;101543.77;102488;1315;95173;-60
2022/12/04 00:04:24;;;;;;;67.10;29.70;;;;;;;1.38;91.83;101539.90;102474;1308;80839;-58
2022/12/04 00:06:56;;;;;;;71.60;28.60;;;;;;;1.37;91.86;101535.34;102569;1312;83145;-61
2022/12/04 00:09:28;;;;;;;63.30;28.20;;;;;;;1.39;91.91;101538.58;102548;1307;97955;-61
2022/12/04 00:12:01;;;;;;;69.30;28.60;;;;;;;1.37;91.90;101538.40;102562;1308;88130;-62
2022/12/04 00:14:32;;;;;;;55.10;22.00;;;;;;;1.30;92.02;101536.88;102505;1315;94118;-61
2022/12/04 00:17:06;;;;;;;66.40;28.30;;;;;;;1.28;92.21;101533.52;102374;1309;80395;-62
2022/12/04 00:19:37;;;;;;;64.40;27.30;;;;;;;1.27;92.33;101532.48;102466;1307;81628;-63
2022/12/04 00:22:11;;;;;;;72.00;31.70;;;;;;;1.27;92.25;101543.30;102415;1315;98248;-59
2022/12/04 00:24:41;;;;;;;70.10;30.00;;;;;;;1.25;92.25;101546.98;102453;1306;88489;-59
2022/12/04 00:27:12;;;;;;;71.10;29.40;;;;;;;1.31;92.18;101554.42;102504;1306;95597;-61
2022/12/04 00:29:43;;;;;;;69.10;29.10;;;;;;;1.27;92.25;101547.95;102333;1315;81981;-59
2022/12/04 00:32:16;;;;;;;55.20;25.20;;;;;;;1.25;92.25;101550.04;102565;1311;82320;-61
2022/12/04 00:34:51;;;;;;;68.50;29.00;;;;;;;1.26;92.39;101546.20;102522;1312;97664;-60
2022/12/04 00:37:25;;;;;;;70.80;31.50;;;;;;;1.27;92.25;101545.31;102589;1307;87836;-59
2022/12/04 00:39:56;;;;;;;59.90;24.50;;;;;;;1.24;92.48;101542.60;102563;1311;95321;-59
2022/12/04 00:42:29;;;;;;;60.40;27.60;;;;;;;1.17;92.67;101548.41;102572;1312;81320;-62
2022/12/04 00:45:01;;;;;;;78.50;32.70;;;;;;;1.22;92.43;101546.34;102551;1311;82927;-62
2022/12/04 00:47:32;;;;;;;68.20;27.70;;;;;;;1.25;92.37;101549.27;102564;1310;98870;-58
2022/12/04 00:50:09;;;;;;;68.60;29.40;;;;;;;1.18;92.63;101546.55;102566;1307;88470;-58
2022/12/04 00:52:39;;;;;;;72.40;31.70;;;;;;;1.19;92.70;101545.45;102575;1312;95337;-62
2022/12/04 00:55:14;;;;;;;62.40;27.20;;;;;;;1.18;92.52;101537.84;102543;1306;81496;-61
2022/12/04 00:57:48;;;;;;;83.50;35.00;;;;;;;1.18;92.57;101537.33;102578;1311;81573;-59
2022/12/04 01:00:27;;;;;;;62.20;26.50;;;;;;;1.15;92.59;101530.45;102533;1306;98647;-61
2022/12/04 01:03:01;;;;;;;67.30;27.50;;;;;;;1.14;92.61;101528.37;102540;1305;86901;-60
2022/12/04 01:05:37;;;;;;;64.20;28.70;;;;;;;1.16;92.53;101530.92;102546;1308;94501;-59
2022/12/04 01:08:09;;;;;;;63.20;27.30;;;;;;;1.20;92.45;101536.18;102557;1312;80544;-59
2022/12/04 01:10:43;;;;;;;63.60;27.80;;;;;;;1.23;92.42;101544.65;102517;1305;82602;-60
2022/12/04 01:13:16;;;;;;;67.60;28.40;;;;;;;1.24;92.66;101542.80;102552;1311;98708;-61
2022/12/04 01:15:48;;;;;;;67.80;28.70;;;;;;;1.26;92.48;101546.20;102542;1305;88147;-59
2022/12/04 01:18:19;;;;;;;62.90;28.70;;;;;;;1.27;92.50;101545.29;102523;1312;94632;-58
2022/12/04 01:20:53;;;;;;;66.00;29.70;;;;;;;1.24;92.67;101550.27;102524;1308;80233;-59
2022/12/04 01:23:24;;;;;;;62.70;28.20;;;;;;;1.25;92.77;101546.82;102557;1315;82213;-60
2022/12/04 01:26:00;;;;;;;68.90;31.60;;;;;;;1.28;92.62;101543.95;102553;1309;97796;-61
2022/12/04 01:28:38;;;;;;;69.10;29.00;;;;;;;1.30;92.69;101547.37;102557;1311;88267;-60
2022/12/04 01:31:15;;;;;;;73.40;29.90;;;;;;;1.29;92.66;101543.02;102532;1312;95374;-61
2022/12/04 01:33:45;;;;;;;;;;;;;;;1.33;92.62;101545.56;102597;1307;80082;-62
2022/12/04 01:36:19;;;;;;;61.30;28.00;;;;;;;1.36;92.52;101551.95;102549;1305;81909;-61
2022/12/04 01:38:50;;;;;;;63.30;26.70;;;;;;;1.37;92.49;101555.44;102580;1309;97996;-60
2022/12/04 01:41:26;;;;;;;60.80;27.30;;;;;;;1.34;92.65;101557.36;102581;1311;89201;-62
2022/12/04 01:44:17;;;;;;;70.30;31.20;;;;;;;1.36;92.58;101551.42;102537;1312;93585;-62
2022/12/04 01:46:52;;;;;;;62.00;28.30;;;;;;;1.36;92.43;101546.98;102562;1312;78930;-60
2022/12/04 01:49:29;;;;;;;57.10;27.90;;;;;;;1.33;92.78;101543.08;102485;1313;80447;-61
2022/12/04 01:52:05;;;;;;;63.80;28.60;;;;;;;1.31;92.71;101536.84;102541;1305;96044;-61
2022/12/04 01:54:42;;;;;;;57.70;26.10;;;;;;;1.27;92.81;101539.08;102572;1311;88462;-61
2022/12/04 01:57:16;;;;;;;57.00;26.10;;;;;;;1.20;92.86;101536.65;102530;1312;95330;-62
2022/12/04 01:59:52;;;;;;;65.60;28.30;;;;;;;1.15;92.72;101536.98;102571;1305;80788;-62
2022/12/04 02:02:28;;;;;;;63.40;27.00;;;;;;;1.16;92.64;101534.83;102538;1311;80773;-62
2022/12/04 02:05:04;;;;;;;53.30;24.60;;;;;;;1.17;92.77;101535.45;102584;1307;97308;-61
2022/12/04 02:07:39;;;;;;;63.80;28.70;;;;;;;1.18;92.75;101530.23;102611;1312;88831;-58
2022/12/04 02:10:16;;;;;;;54.50;25.80;;;;;;;1.20;92.76;101526.90;102589;1308;95681;-58
2022/12/04 02:13:02;;;;;;;56.40;26.40;;;;;;;1.18;92.86;101522.73;102538;1312;80973;-59
2022/12/04 02:15:43;;;;;;;43.80;20.60;;;;;;;1.18;93.07;101520.84;102535;1309;82957;-60
2022/12/04 02:18:25;;;;;;;56.10;26.10;;;;;;;1.17;92.95;101520.88;102553;1309;97636;-58
2022/12/04 02:21:04;;;;;;;54.10;25.30;;;;;;;1.16;93.06;101521.54;102541;1312;86633;-58
2022/12/04 02:24:12;;;;;;;49.60;24.00;;;;;;;1.18;92.91;101519.23;102540;1312;94063;-58
2022/12/04 02:26:52;;;;;;;47.50;23.20;;;;;;;1.18;92.95;101515.52;102530;1313;80316;-60
2022/12/04 02:29:36;;;;;;;49.10;24.00;;;;;;;1.20;92.81;101515.06;102544;1309;82276;-61
2022/12/04 02:32:22;;;;;;;53.90;24.30;;;;;;;1.27;92.74;101516.89;102527;1312;98580;-61
2022/12/04 02:34:59;;;;;;;54.00;24.10;;;;;;;1.29;92.69;101518.72;102570;1312;89561;-61
2022/12/04 02:37:35;;;;;;;51.00;23.10;;;;;;;1.31;92.63;101515.89;102471;1315;97343;-59
2022/12/04 02:40:14;;;;;;;52.80;25.50;;;;;;;1.29;92.86;101522.09;102535;1306;78304;-59
2022/12/04 02:42:50;;;;;;;50.60;25.10;;;;;;;1.31;92.82;101520.14;102544;1314;83262;-62
2022/12/04 02:45:26;;;;;;;49.90;23.50;;;;;;;1.31;92.83;101524.41;102563;1311;97425;-61
2022/12/04 02:48:01;;;;;;;57.30;25.90;;;;;;;1.27;92.69;101521.48;102575;1312;88807;-61
2022/12/04 02:50:40;;;;;;;56.10;25.10;;;;;;;1.22;92.77;101521.11;102551;1306;95547;-61
2022/12/04 02:53:16;;;;;;;53.40;23.90;;;;;;;1.18;92.84;101517.64;102517;1315;81645;-59
2022/12/04 02:55:54;;;;;;;43.90;21.60;;;;;;;1.19;92.59;101524.67;102505;1307;82847;-60
2022/12/04 02:58:31;;;;;;;51.00;24.20;;;;;;;1.15;93.05;101521.05;102505;1314;97103;-60
2022/12/04 03:01:18;;;;;;;56.10;26.20;;;;;;;1.14;92.96;101523.05;102527;1310;89104;-59
2022/12/04 03:03:56;;;;;;;47.70;20.90;;;;;;;1.14;92.89;101518.64;102199;1315;95037;-59
2022/12/04 03:06:32;;;;;;;47.30;24.40;;;;;;;1.08;93.10;101518.64;102450;1307;81617;-59
2022/12/04 03:09:07;;;;;;;54.40;24.60;;;;;;;1.06;93.15;101517.25;102507;1315;82215;-60
2022/12/04 03:11:44;;;;;;;52.30;23.10;;;;;;;1.12;92.96;101513.78;102367;1308;98399;-59
2022/12/04 03:14:18;;;;;;;60.10;26.60;;;;;;;1.13;93.02;101502.54;102495;1299;89787;-61
2022/12/04 03:16:58;;;;;;;44.50;20.70;;;;;;;1.15;93.19;101503.86;102485;1315;94234;-61
2022/12/04 03:19:38;;;;;;;50.30;24.00;;;;;;;1.03;93.35;101503.55;102447;1307;80729;-61
2022/12/04 03:22:17;;;;;;;47.50;22.70;;;;;;;1.04;93.16;101504.42;102396;1314;82142;-57
2022/12/04 03:24:56;;;;;;;49.50;23.70;;;;;;;1.09;93.40;101506.52;102412;1307;98675;-59
2022/12/04 03:27:36;;;;;;;45.80;22.50;;;;;;;1.09;93.27;101504.59;102558;1311;88781;-60
2022/12/04 03:30:15;;;;;;;48.80;23.40;;;;;;;1.10;93.37;101505.94;102532;1308;94839;-60
2022/12/04 03:32:56;;;;;;;53.80;22.80;;;;;;;1.10;93.21;101501.13;102515;1311;80025;-61
2022/12/04 03:35:41;;;;;;;49.40;24.30;;;;;;;1.09;93.25;101503.73;102529;1308;81542;-61
2022/12/04 03:38:17;;;;;;;53.10;22.80;;;;;;;1.06;93.44;101510.66;102573;1307;96633;-60
2022/12/04 03:40:59;;;;;;;48.00;23.00;;;;;;;1.05;93.36;101507.16;102490;1307;87513;-61
2022/12/04 03:43:38;;;;;;;44.80;21.50;;;;;;;1.07;93.31;101506.72;102512;1316;94408;-62
2022/12/04 03:46:16;;;;;;;48.20;21.90;;;;;;;1.06;93.45;101510.63;102554;1309;81034;-63
2022/12/04 03:48:58;;;;;;;48.70;21.70;;;;;;;1.06;93.55;101502.48;102574;1316;82264;-63
2022/12/04 03:51:37;;;;;;;47.20;21.70;;;;;;;1.08;93.22;101504.33;102585;1312;99164;-59
2022/12/04 03:54:14;;;;;;;47.60;21.40;;;;;;;1.10;93.22;101500.64;102616;1310;89507;-58
2022/12/04 03:56:52;;;;;;;41.70;21.00;;;;;;;1.12;93.26;101495.73;102560;1307;95662;-60
2022/12/04 03:59:30;;;;;;;45.60;20.30;;;;;;;1.11;93.33;101497.20;102552;1311;78884;-60
2022/12/04 04:02:04;;;;;;;44.30;21.60;;;;;;;1.11;93.24;101492.40;102560;1307;83086;-59
2022/12/04 04:04:39;;;;;;;46.50;22.50;;;;;;;1.13;93.07;101489.06;102555;1311;98436;-60
2022/12/04 04:07:19;;;;;;;45.70;20.80;;;;;;;1.13;93.10;101490.17;102601;1312;87651;-62
2022/12/04 04:09:58;;;;;;;47.30;21.90;;;;;;;1.13;93.21;101491.37;102501;1311;94062;-61
2022/12/04 04:12:39;;;;;;;48.30;21.70;;;;;;;1.15;93.10;101490.54;102575;1305;81775;-61
2022/12/04 04:26:59;;;;;;;44.10;20.90;;;;;;;1.09;93.46;101479.94;102178;1308;79366;-60
2022/12/04 04:29:31;;;;;;;41.00;19.10;;;;;;;1.02;93.49;101480.20;102548;1307;83784;-60
2022/12/04 04:32:12;;;;;;;45.00;21.40;;;;;;;0.99;93.19;101473.85;102544;1308;98497;-60
2022/12/04 04:34:54;;;;;;;45.30;19.70;;;;;;;0.96;93.18;101476.94;102612;1309;86878;-61
2022/12/04 04:37:36;;;;;;;41.90;20.30;;;;;;;0.98;93.30;101481.92;102564;1312;93598;-58
2022/12/04 04:40:18;;;;;;;41.00;20.30;;;;;;;0.99;93.31;101483.12;102543;1316;80955;-57
2022/12/04 04:42:59;;;;;;;38.70;18.30;;;;;;;1.03;93.19;101490.25;102557;1306;82110;-61
2022/12/04 04:45:38;;;;;;;44.40;22.00;;;;;;;1.00;93.31;101490.14;102550;1307;96384;-61
2022/12/04 04:48:14;;;;;;;45.70;21.60;;;;;;;1.02;93.32;101500.27;102542;1305;89400;-58
2022/12/04 04:50:49;;;;;;;45.40;20.30;;;;;;;1.03;93.47;101501.27;102520;1312;93785;-60
2022/12/04 04:53:27;;;;;;;41.60;20.10;;;;;;;1.02;93.47;101501.17;102488;1305;79843;-60
2022/12/04 04:56:00;;;;;;;56.30;25.00;;;;;;;1.03;93.18;101503.25;102491;1311;83189;-59
2022/12/04 04:58:35;;;;;;;44.20;21.80;;;;;;;1.05;93.23;101502.77;102550;1307;98610;-59
2022/12/04 05:01:10;;;;;;;44.30;21.40;;;;;;;1.08;93.17;101501.27;102553;1307;88502;-61
2022/12/04 05:03:46;;;;;;;46.10;20.30;;;;;;;1.12;93.08;101501.73;102212;1309;444180;-61
2022/12/04 05:06:19;;;;;;;46.90;20.00;;;;;;;1.13;93.17;101504.65;102556;1309;81256;-60
2022/12/04 05:08:51;;;;;;;44.20;20.80;;;;;;;1.16;93.14;101503.98;102582;1306;82567;-61
2022/12/04 05:11:23;;;;;;;46.00;22.10;;;;;;;1.14;93.17;101501.56;102574;1309;99192;-61
2022/12/04 05:13:53;;;;;;;50.40;21.50;;;;;;;1.15;93.03;101502.60;102575;1311;88850;-61
2022/12/04 05:16:23;;;;;;;48.20;22.90;;;;;;;1.12;93.27;101507.43;102579;1308;93462;-60
2022/12/04 05:21:49;;;;;;;54.50;25.70;;;;;;;1.13;93.16;101511.98;102563;1306;83297;-58
2022/12/04 05:24:20;;;;;;;52.20;23.30;;;;;;;1.14;93.10;101506.55;102603;1305;97775;-57
2022/12/04 05:26:53;;;;;;;;;;;;;;;1.10;93.08;101508.44;102548;1311;89441;-58
2022/12/04 05:29:23;;;;;;;51.80;23.20;;;;;;;1.07;93.01;101527.80;102481;1305;93951;-58
2022/12/04 05:31:54;;;;;;;50.10;23.50;;;;;;;1.06;93.06;101531.56;102489;1313;81296;-59
2022/12/04 05:34:28;;;;;;;46.20;22.40;;;;;;;1.10;93.00;101529.51;102484;1314;82762;-58
2022/12/04 05:36:59;;;;;;;51.10;23.20;;;;;;;1.10;93.08;101525.63;102485;1292;100434;-60
2022/12/04 05:39:30;;;;;;;45.70;24.30;;;;;;;1.13;92.90;101522.05;102449;1306;89071;-61
2022/12/04 05:42:04;;;;;;;46.70;21.90;;;;;;;1.12;92.99;101513.60;102499;1306;94887;-58
2022/12/04 05:44:37;;;;;;;47.20;22.30;;;;;;;1.10;92.95;101511.44;102476;1315;80844;-58
2022/12/04 05:47:08;;;;;;;48.50;22.90;;;;;;;1.11;92.98;101519.73;102499;1314;81426;-59
2022/12/04 05:49:39;;;;;;;48.10;23.00;;;;;;;1.15;93.06;101516.42;102486;1314;98772;-59
2022/12/04 05:52:11;;;;;;;48.10;21.70;;;;;;;1.14;92.91;101519.20;102477;1306;87375;-62
2022/12/04 05:54:42;;;;;;;47.90;22.10;;;;;;;1.12;92.99;101521.27;102481;1306;93911;-63
2022/12/04 05:57:15;;;;;;;43.60;21.40;;;;;;;1.12;92.81;101516.95;102514;1308;80122;-61
2022/12/04 05:59:50;;;;;;;40.60;21.20;;;;;;;1.13;92.82;101513.89;102481;1314;81445;-61
2022/12/04 06:02:24;;;;;;;42.60;21.50;;;;;;;1.15;92.78;101513.41;102519;1315;98463;-61
2022/12/04 06:05:06;;;;;;;46.50;23.10;;;;;;;1.13;92.80;101514.41;102499;1315;87945;-62
2022/12/04 06:07:37;;;;;;;43.00;20.70;;;;;;;1.12;92.75;101529.57;102489;1313;96015;-61
2022/12/04 06:10:13;;;;;;;39.60;19.20;;;;;;;1.11;92.72;101531.59;102479;1306;81311;-61
2022/12/04 06:12:46;;;;;;;42.00;20.60;;;;;;;1.11;92.56;101530.85;102478;1306;83073;-58
2022/12/04 06:15:19;;;;;;;45.10;20.90;;;;;;;1.11;92.55;101525.38;102496;1306;96084;-59
2022/12/04 06:17:52;;;;;;;42.70;21.50;;;;;;;1.12;92.54;101523.94;102517;1306;86333;-58
2022/12/04 06:20:25;;;;;;;37.70;20.30;;;;;;;1.08;92.53;101519.73;102481;1305;94331;-58
2022/12/04 06:22:58;;;;;;;42.10;21.60;;;;;;;1.08;92.53;101529.29;102473;1314;80108;-61
2022/12/04 06:25:33;;;;;;;36.90;18.80;;;;;;;1.07;92.43;101540.59;102477;1305;81651;-61
2022/12/04 06:28:03;;;;;;;38.60;20.00;;;;;;;1.02;92.32;101546.04;102502;1314;98467;-62
2022/12/04 06:30:37;;;;;;;34.10;18.60;;;;;;;1.00;92.37;101546.36;102498;1306;87647;-62
2022/12/04 06:33:07;;;;;;;48.00;21.60;;;;;;;0.98;92.35;101549.50;102465;1306;95547;-61
2022/12/04 06:35:39;;;;;;;41.10;19.90;;;;;;;0.99;92.43;101544.80;102475;1309;80576;-60
2022/12/04 06:38:12;;;;;;;44.00;21.30;;;;;;;0.98;92.47;101540.62;102465;1312;81481;-60
2022/12/04 06:40:43;;;;;;;41.00;20.50;;;;;;;1.03;92.44;101543.84;102489;1308;99474;-60
2022/12/04 06:43:16;;;;;;;41.40;21.20;;;;;;;1.05;92.39;101542.11;102521;1313;88878;-60
2022/12/04 06:45:47;;;;;;;41.40;19.20;;;;;;;1.08;92.45;101550.61;102488;1309;94342;-59
2022/12/04 06:48:20;;;;;;;44.70;21.20;;;;;;;1.08;92.44;101556.83;102554;1314;80111;-60
2022/12/04 06:50:58;;;;;;;43.90;20.90;;;;;;;1.07;92.52;101555.78;102515;1316;82662;-60
2022/12/04 06:53:29;;;;;;;40.60;19.80;;;;;;;1.10;92.33;101551.55;102529;1299;98349;-60
2022/12/04 06:56:02;;;;;;;41.10;20.40;;;;;;;1.08;92.30;101551.50;102564;1308;88682;-60
2022/12/04 06:58:33;;;;;;;47.70;22.00;;;;;;;1.02;92.34;101556.65;102484;1306;96565;-62
2022/12/04 07:01:12;;;;;;;49.30;22.90;;;;;;;1.00;92.35;101563.40;102501;1311;80566;-59
2022/12/04 07:03:44;;;;;;;44.10;21.20;;;;;;;0.98;92.45;101564.05;102363;1314;84192;-59
2022/12/04 07:06:19;;;;;;;43.50;21.50;;;;;;;1.00;92.49;101560.55;102506;1309;96748;-59
2022/12/04 07:08:50;;;;;;;;;;;;;;;0.99;92.57;101551.71;102526;1314;87820;-58
2022/12/04 07:11:25;;;;;;;48.10;22.50;;;;;;;1.00;92.71;101546.55;102495;1299;94603;-61
2022/12/04 07:13:58;;;;;;;46.60;22.20;;;;;;;1.04;92.43;101550.51;102454;1304;81827;-60
2022/12/04 07:16:30;;;;;;;48.00;22.00;;;;;;;1.04;92.55;101553.39;102519;1315;83163;-60
2022/12/04 07:19:04;;;;;;;43.20;21.90;;;;;;;1.00;92.73;101551.36;102489;1314;98737;-60
2022/12/04 07:21:34;;;;;;;43.00;21.70;;;;;;;1.04;92.63;101548.77;102349;1314;89267;-61
2022/12/04 07:24:13;;;;;;;38.70;19.70;;;;;;;1.04;92.54;101547.33;102434;1299;95554;-61
2022/12/04 07:26:48;;;;;;;45.50;20.70;;;;;;;0.96;92.62;101558.32;102484;1299;81899;-61
2022/12/04 07:29:21;;;;;;;45.20;20.10;;;;;;;0.94;92.71;101554.19;102476;1314;83327;-60
2022/12/04 07:31:55;;;;;;;42.70;19.40;;;;;;;0.94;92.58;101550.98;102495;1298;99819;-60
2022/12/04 07:34:28;;;;;;;38.50;18.60;;;;;;;0.95;92.55;101553.26;102528;1315;87489;-59
2022/12/04 07:37:04;;;;;;;43.00;21.50;;;;;;;0.94;92.67;101558.98;102524;1314;94258;-60
2022/12/04 07:39:36;;;;;;;32.70;17.20;;;;;;;1.01;92.51;101568.77;102511;1308;79403;-61
2022/12/04 07:42:11;;;;;;;38.00;19.70;;;;;;;1.04;92.43;101575.20;102482;1314;83318;-58
2022/12/04 07:44:47;;;;;;;36.20;19.00;;;;;;;1.11;92.18;101575.21;102465;1308;98830;-59
2022/12/04 07:47:19;;;;;;;43.00;22.10;;;;;;;1.17;92.16;101577.84;102463;1313;87987;-59
2022/12/04 07:49:53;;;;;;;33.30;17.80;;;;;;;1.17;92.11;101579.10;102460;1306;93395;-59
2022/12/04 07:52:26;;;;;;;38.10;19.70;;;;;;;1.15;92.02;101574.45;102469;1313;80269;-62
2022/12/04 07:55:00;;;;;;;36.20;18.20;;;;;;;1.21;92.07;101573.91;102485;1306;82726;-62
2022/12/04 07:57:31;;;;;;;36.90;20.30;;;;;;;1.24;91.95;101569.42;102460;1308;98522;-62
2022/12/04 08:00:03;;;;;;;35.90;18.90;;;;;;;1.20;91.97;101575.17;102471;1313;88992;-62
2022/12/04 08:02:34;;;;;;;37.20;19.70;;;;;;;1.18;91.90;101579.41;102541;1308;94538;-61
2022/12/04 08:05:09;;;;;;;38.30;19.20;;;;;;;1.24;91.78;101585.02;102489;1309;81014;-62
2022/12/04 08:07:41;;;;;;;35.20;18.90;;;;;;;1.22;91.64;101585.86;102474;1306;83281;-61
2022/12/04 08:10:17;;;;;;;37.00;19.70;;;;;;;1.15;91.55;101581.36;102567;1308;96401;-61
2022/12/04 08:12:50;;;;;;;39.00;21.30;;;;;;;1.14;91.65;101575.94;102524;1299;89038;-62
2022/12/04 08:15:23;;;;;;;37.00;20.40;;;;;;;1.18;91.74;101579.02;102493;1306;94538;-62
2022/12/04 08:17:53;;;;;;;34.50;19.00;;;;;;;1.26;91.51;101577.44;102507;1315;81071;-61
2022/12/04 08:20:26;;;;;;;36.70;19.90;;;;;;;1.23;91.49;101581.38;102529;1306;83296;-61
2022/12/04 08:23:07;;;;;;;38.90;20.20;;;;;;;1.16;91.40;101579.00;102489;1308;98425;-61
2022/12/04 08:25:40;;;;;;;36.20;20.00;;;;;;;1.16;91.34;101578.13;102517;1307;89321;-61
2022/12/04 08:28:13;;;;;;;36.60;20.40;;;;;;;1.18;91.46;101574.58;102512;1309;93216;-61
2022/12/04 08:30:47;;;;;;;33.30;18.70;;;;;;;1.18;91.49;101575.32;102469;1313;77182;-61
2022/12/04 08:33:21;;;;;;;34.20;19.50;;;;;;;1.16;91.38;101573.66;102502;1308;82494;-59
2022/12/04 08:35:53;;;;;;;38.70;22.50;;;;;;;1.16;91.30;101573.31;102471;1315;98033;-58
2022/12/04 08:38:26;;;;;;;38.90;20.90;;;;;;;1.13;91.37;101572.79;102563;1308;89125;-60
2022/12/04 08:41:02;;;;;;;36.40;19.30;;;;;;;1.10;91.32;101575.65;102551;1302;94214;-62
2022/12/04 08:43:34;;;;;;;42.80;22.30;;;;;;;1.08;91.37;101570.10;102486;1307;81157;-62
2022/12/04 08:46:08;;;;;;;34.70;19.00;;;;;;;1.12;91.33;101567.91;102587;1306;81345;-59
2022/12/04 08:48:42;;;;;;;36.90;19.80;;;;;;;1.14;91.25;101571.28;102599;1312;98957;-59
2022/12/04 08:51:17;;;;;;;32.10;18.80;;;;;;;1.17;91.34;101564.02;102515;1314;88538;-60
2022/12/04 08:53:55;;;;;;;35.90;19.60;;;;;;;1.15;91.45;101567.16;102610;1306;94432;-61
2022/12/04 08:56:27;;;;;;;31.20;18.00;;;;;;;1.18;91.29;101562.85;102587;1313;78840;-59
2022/12/04 08:59:02;;;;;;;35.40;20.60;;;;;;;1.28;91.32;101561.92;102525;1309;83024;-58
2022/12/04 09:01:35;;;;;;;37.50;20.80;;;;;;;1.33;91.21;101564.56;102582;1307;99217;-61
2022/12/04 09:04:08;;;;;;;36.30;20.00;;;;;;;1.33;91.10;101566.67;102342;1313;86580;-62
2022/12/04 09:06:41;;;;;;;36.10;19.80;;;;;;;1.30;91.21;101572.38;102555;1307;94794;-59
2022/12/04 09:09:15;;;;;;;37.80;20.30;;;;;;;1.25;91.05;101573.77;102559;1308;79661;-59
2022/12/04 09:11:48;;;;;;;35.10;19.10;;;;;;;1.16;91.05;101567.80;102600;1311;81579;-62
2022/12/04 09:14:29;;;;;;;37.70;20.50;;;;;;;1.17;91.11;101563.86;102543;1306;98572;-60
2022/12/04 09:17:03;;;;;;;37.60;20.20;;;;;;;1.23;91.04;101566.30;102550;1305;89187;-61
2022/12/04 09:19:36;;;;;;;34.10;18.50;;;;;;;1.22;91.09;101561.02;102564;1308;93622;-60
2022/12/04 09:22:06;;;;;;;33.80;18.80;;;;;;;1.19;91.05;101560.71;102569;1307;79604;-59
2022/12/04 09:24:39;;;;;;;29.00;16.70;;;;;;;1.22;91.18;101561.59;102625;1306;81435;-64
2022/12/04 09:27:10;;;;;;;34.90;19.70;;;;;;;1.22;91.19;101564.45;102598;1312;98325;-62
2022/12/04 09:29:41;;;;;;;34.00;18.00;;;;;;;1.25;91.14;101557.11;102569;1305;88855;-61
2022/12/04 09:32:14;;;;;;;35.80;19.80;;;;;;;1.26;91.04;101557.41;102566;1298;93693;-60
2022/12/04 09:34:49;;;;;;;32.90;18.60;;;;;;;1.30;91.04;101559.10;102572;1306;78783;-61
2022/12/04 09:37:24;;;;;;;40.10;22.60;;;;;;;1.31;90.95;101560.08;102542;1301;83573;-60
2022/12/04 09:39:58;;;;;;;37.40;20.20;;;;;;;1.34;91.02;101558.45;102537;1309;97773;-61
2022/12/04 09:42:40;;;;;;;36.20;20.50;;;;;;;1.36;91.05;101555.48;102561;1308;86650;-60
2022/12/04 09:45:18;;;;;;;34.90;19.30;;;;;;;1.41;90.81;101556.20;102527;1309;94623;-58
2022/12/04 09:47:52;;;;;;;31.10;17.70;;;;;;;1.38;90.75;101556.80;102572;1309;80909;-61
2022/12/04 09:50:26;;;;;;;;;;;;;;;1.34;90.85;101553.48;102571;1306;81756;-61
2022/12/04 09:53:01;;;;;;;34.90;19.80;;;;;;;1.37;90.92;101549.20;102593;1308;98469;-61
2022/12/04 09:55:41;;;;;;;39.90;21.40;;;;;;;1.42;90.75;101546.54;102555;1307;86538;-61
2022/12/04 09:58:18;;;;;;;30.10;18.50;;;;;;;1.43;90.81;101546.10;102569;1311;95660;-60
2022/12/04 10:00:54;;;;;;;33.00;18.40;;;;;;;1.44;90.70;101540.39;102576;1299;81065;-60
2022/12/04 10:03:30;;;;;;;36.10;20.30;;;;;;;1.46;90.63;101535.63;102643;1306;81994;-61
2022/12/04 10:06:11;;;;;;;39.50;19.70;;;;;;;1.50;90.55;101531.83;102595;1309;98642;-60
2022/12/04 10:08:45;;;;;;;34.80;19.10;;;;;;;1.48;90.53;101529.44;102494;1307;88364;-62
2022/12/04 10:11:34;;;;;;;34.60;19.70;;;;;;;1.54;90.62;101525.31;102545;1308;95294;-59
2022/12/04 10:14:36;;;;;;;40.70;22.70;;;;;;;1.65;90.63;101522.77;102570;1306;79870;-64
2022/12/04 10:17:35;;;;;;;35.60;19.90;;;;;;;1.69;90.46;101519.81;102532;1308;82763;-61
2022/12/04 10:20:29;;;;;;;35.30;21.00;;;;;;;1.73;90.49;101525.02;102587;1315;98228;-60
2022/12/04 10:23:13;;;;;;;32.00;19.50;;;;;;;1.81;90.30;101522.20;102541;1312;86839;-62
2022/12/04 10:25:49;;;;;;;31.60;19.00;;;;;;;1.89;90.23;101522.89;102574;1312;94236;-62
2022/12/04 10:28:30;;;;;;;35.60;20.70;;;;;;;1.93;90.18;101521.19;102555;1314;79823;-62
2022/12/04 10:31:05;;;;;;;30.80;18.60;;;;;;;1.93;90.08;101519.02;102562;1309;81502;-61
2022/12/04 10:33:40;;;;;;;;;;;;;;;1.95;89.84;101516.06;102566;1311;98334;-61
2022/12/04 10:36:18;;;;;;;32.40;19.40;;;;;;;2.03;89.90;101512.70;102556;1306;88208;-61
2022/12/04 10:38:53;;;;;;;36.00;19.80;;;;;;;1.98;89.70;101510.39;102551;1308;94914;-60
2022/12/04 10:41:30;;;;;;;31.40;18.60;;;;;;;1.94;89.77;101502.98;102576;1310;79953;-61
2022/12/04 10:44:13;;;;;;;32.70;20.40;;;;;;;1.92;89.83;101500.30;102563;1299;81476;-62
2022/12/04 10:46:46;;;;;;;30.60;18.10;;;;;;;1.89;89.51;101503.71;102549;1308;97754;-60
2022/12/04 10:49:23;;;;;;;28.70;17.80;;;;;;;1.90;89.55;101497.80;102613;1308;87993;-61
2022/12/04 10:51:56;;;;;;;31.00;19.70;;;;;;;1.96;89.43;101497.55;102524;1306;94481;-59
2022/12/04 10:54:33;;;;;;;33.70;21.10;;;;;;;1.96;89.60;101493.41;102577;1309;78501;-59
2022/12/04 10:57:15;;;;;;;37.10;21.80;;;;;;;1.95;89.40;101489.62;102579;1307;83518;-61
2022/12/04 10:59:55;;;;;;;32.80;20.00;;;;;;;1.95;89.37;101487.84;102561;1311;97473;-60
2022/12/04 11:02:29;;;;;;;31.90;19.90;;;;;;;1.88;89.52;101486.02;102536;1312;87054;-61
2022/12/04 11:05:04;;;;;;;33.30;20.80;;;;;;;1.91;89.46;101475.68;102553;1306;94276;-61
2022/12/04 11:07:44;;;;;;;34.90;20.10;;;;;;;1.86;89.45;101471.59;102573;1311;80311;-59
2022/12/04 11:10:28;;;;;;;31.30;19.00;;;;;;;1.88;89.56;101468.23;102540;1308;83460;-59
2022/12/04 11:13:03;;;;;;;30.40;18.00;;;;;;;1.97;89.58;101469.60;102595;1309;96815;-61
2022/12/04 11:15:42;;;;;;;33.10;19.10;;;;;;;2.00;89.48;101470.95;102517;1308;88553;-61
2022/12/04 11:18:20;;;;;;;29.40;19.60;;;;;;;2.06;89.40;101475.15;102557;1306;93163;-62
2022/12/04 11:20:56;;;;;;;36.10;21.40;;;;;;;2.04;89.38;101477.08;102566;1306;78762;-59
2022/12/04 11:23:29;;;;;;;35.20;19.70;;;;;;;2.06;89.44;101477.65;102600;1309;83234;-60
2022/12/04 11:26:03;;;;;;;31.50;19.10;;;;;;;2.05;89.21;101471.68;102593;1312;97559;-60
2022/12/04 11:28:36;;;;;;;32.10;19.70;;;;;;;2.01;89.33;101470.67;102594;1306;87641;-61
2022/12/04 11:31:17;;;;;;;28.00;17.80;;;;;;;1.96;89.11;101466.45;102567;1308;93588;-61
2022/12/04 11:33:56;;;;;;;27.30;16.60;;;;;;;1.95;89.22;101471.52;102597;1306;80220;-60
2022/12/04 11:36:34;;;;;;;26.20;17.80;;;;;;;1.96;89.26;101471.73;102588;1312;81623;-59
2022/12/04 11:39:17;;;;;;;27.60;18.80;;;;;;;2.07;89.28;101464.78;102580;1308;98713;-59
2022/12/04 11:42:00;;;;;;;29.50;18.80;;;;;;;2.10;89.04;101465.06;102540;1312;87573;-59
2022/12/04 11:44:35;;;;;;;32.60;21.30;;;;;;;1.99;88.99;101463.95;102357;1308;93847;-58
2022/12/04 11:47:18;;;;;;;32.40;18.30;;;;;;;1.94;89.13;101456.29;102522;1305;80584;-61
2022/12/04 11:50:11;;;;;;;32.60;20.80;;;;;;;1.93;89.03;101460.84;102553;1306;81985;-61
2022/12/04 11:53:06;;;;;;;33.90;21.90;;;;;;;1.95;89.16;101463.83;102513;1306;98469;-59
2022/12/04 11:56:03;;;;;;;29.60;18.60;;;;;;;1.93;89.22;101468.98;102583;1309;89073;-62
2022/12/04 11:59:00;;;;;;;29.30;19.80;;;;;;;1.93;89.30;101472.34;102562;1306;92647;-63
2022/12/04 12:01:45;;;;;;;27.80;18.30;;;;;;;1.94;89.16;101467.48;102549;1309;81605;-61
2022/12/04 12:04:53;;;;;;;28.60;18.40;;;;;;;1.91;89.27;101467.53;102563;1308;81987;-62